sensor_id;sensor_type;location;lat;lon;timestamp;temperature;humidity
69261;DHT22;56378;52.404;20.816;2023-03-01T00:01:08;-6.10;99.90
69261;DHT22;56378;52.404;20.816;2023-03-01T00:03:35;-6.10;99.40
69261;DHT22;56378;52.404;20.816;2023-03-01T00:06:01;-6.10;98.90
69261;DHT22;56378;52.404;20.816;2023-03-01T00:08:28;-6.10;98.40
69261;DHT22;56378;52.404;20.816;2023-03-01T00:11:15;-6.10;98.10
69261;DHT22;56378;52.404;20.816;2023-03-01T00:13:43;-6.00;97.60
69261;DHT22;56378;52.404;20.816;2023-03-01T00:16:33;-6.00;97.20
69261;DHT22;56378;52.404;20.816;2023-03-01T00:18:59;-6.00;97.00
69261;DHT22;56378;52.404;20.816;2023-03-01T00:21:26;-6.00;97.30
69261;DHT22;56378;52.404;20.816;2023-03-01T00:23:53;-6.00;97.20
69261;DHT22;56378;52.404;20.816;2023-03-01T00:26:20;-6.00;96.90
69261;DHT22;56378;52.404;20.816;2023-03-01T00:28:46;-6.00;96.70
69261;DHT22;56378;52.404;20.816;2023-03-01T00:31:15;-6.00;96.60
69261;DHT22;56378;52.404;20.816;2023-03-01T00:33:42;-6.00;96.30
69261;DHT22;56378;52.404;20.816;2023-03-01T00:36:09;-6.00;96.30
69261;DHT22;56378;52.404;20.816;2023-03-01T00:38:43;-6.00;96.00
69261;DHT22;56378;52.404;20.816;2023-03-01T00:41:14;-6.00;95.90
69261;DHT22;56378;52.404;20.816;2023-03-01T00:43:40;-6.00;96.10
69261;DHT22;56378;52.404;20.816;2023-03-01T00:46:09;-5.90;96.50
69261;DHT22;56378;52.404;20.816;2023-03-01T00:48:35;-5.90;96.80
69261;DHT22;56378;52.404;20.816;2023-03-01T00:51:16;-5.90;96.90
69261;DHT22;56378;52.404;20.816;2023-03-01T00:53:44;-5.90;97.30
69261;DHT22;56378;52.404;20.816;2023-03-01T00:56:11;-5.90;97.50
69261;DHT22;56378;52.404;20.816;2023-03-01T00:58:38;-5.90;98.10
69261;DHT22;56378;52.404;20.816;2023-03-01T01:01:16;-5.90;98.70
69261;DHT22;56378;52.404;20.816;2023-03-01T01:03:47;-5.90;99.30
69261;DHT22;56378;52.404;20.816;2023-03-01T01:06:23;-5.90;99.60
69261;DHT22;56378;52.404;20.816;2023-03-01T01:08:49;-5.90;99.80
69261;DHT22;56378;52.404;20.816;2023-03-01T01:11:16;-5.90;99.90
69261;DHT22;56378;52.404;20.816;2023-03-01T01:13:43;-5.80;99.90
69261;DHT22;56378;52.404;20.816;2023-03-01T01:16:09;-5.80;99.90
69261;DHT22;56378;52.404;20.816;2023-03-01T01:18:35;-5.80;99.90
69261;DHT22;56378;52.404;20.816;2023-03-01T01:21:09;-5.80;99.90
69261;DHT22;56378;52.404;20.816;2023-03-01T01:23:36;-5.80;99.90
69261;DHT22;56378;52.404;20.816;2023-03-01T01:26:07;-5.80;99.90
69261;DHT22;56378;52.404;20.816;2023-03-01T01:28:33;-5.70;99.90
69261;DHT22;56378;52.404;20.816;2023-03-01T01:30:59;-5.70;99.90
69261;DHT22;56378;52.404;20.816;2023-03-01T01:33:25;-5.80;99.90
69261;DHT22;56378;52.404;20.816;2023-03-01T01:35:52;-5.70;99.90
69261;DHT22;56378;52.404;20.816;2023-03-01T01:38:18;-5.70;99.90
69261;DHT22;56378;52.404;20.816;2023-03-01T01:40:45;-5.70;99.90
69261;DHT22;56378;52.404;20.816;2023-03-01T01:43:39;-5.70;99.90
69261;DHT22;56378;52.404;20.816;2023-03-01T01:46:32;-5.70;99.90
69261;DHT22;56378;52.404;20.816;2023-03-01T01:49:26;-5.70;99.30
69261;DHT22;56378;52.404;20.816;2023-03-01T01:52:18;-5.70;98.80
69261;DHT22;56378;52.404;20.816;2023-03-01T01:57:43;-5.70;98.70
69261;DHT22;56378;52.404;20.816;2023-03-01T02:00:17;-5.70;98.60
69261;DHT22;56378;52.404;20.816;2023-03-01T02:02:44;-5.70;98.50
69261;DHT22;56378;52.404;20.816;2023-03-01T02:05:15;-5.70;98.20
69261;DHT22;56378;52.404;20.816;2023-03-01T02:07:43;-5.70;98.10
69261;DHT22;56378;52.404;20.816;2023-03-01T02:10:10;-5.70;98.20
69261;DHT22;56378;52.404;20.816;2023-03-01T02:12:36;-5.70;98.30
69261;DHT22;56378;52.404;20.816;2023-03-01T02:15:03;-5.70;98.20
69261;DHT22;56378;52.404;20.816;2023-03-01T02:17:29;-5.70;97.70
69261;DHT22;56378;52.404;20.816;2023-03-01T02:22:33;-5.80;97.20
69261;DHT22;56378;52.404;20.816;2023-03-01T02:30:47;-5.90;99.90
69261;DHT22;56378;52.404;20.816;2023-03-01T02:33:33;-5.90;99.80
69261;DHT22;56378;52.404;20.816;2023-03-01T02:36:04;-5.90;99.40
69261;DHT22;56378;52.404;20.816;2023-03-01T02:38:32;-5.90;99.40
69261;DHT22;56378;52.404;20.816;2023-03-01T02:40:58;-5.90;99.30
69261;DHT22;56378;52.404;20.816;2023-03-01T02:43:29;-5.90;99.10
69261;DHT22;56378;52.404;20.816;2023-03-01T02:45:59;-6.00;98.90
69261;DHT22;56378;52.404;20.816;2023-03-01T02:48:25;-6.00;98.50
69261;DHT22;56378;52.404;20.816;2023-03-01T02:51:04;-6.00;98.30
69261;DHT22;56378;52.404;20.816;2023-03-01T02:53:50;-6.00;99.30
69261;DHT22;56378;52.404;20.816;2023-03-01T02:56:19;-6.00;99.70
69261;DHT22;56378;52.404;20.816;2023-03-01T02:58:45;-6.00;99.70
69261;DHT22;56378;52.404;20.816;2023-03-01T03:01:13;-6.00;99.70
69261;DHT22;56378;52.404;20.816;2023-03-01T03:03:41;-6.00;99.30
69261;DHT22;56378;52.404;20.816;2023-03-01T03:06:06;-6.00;99.10
69261;DHT22;56378;52.404;20.816;2023-03-01T03:08:32;-6.00;98.80
69261;DHT22;56378;52.404;20.816;2023-03-01T03:10:58;-6.00;98.80
69261;DHT22;56378;52.404;20.816;2023-03-01T03:13:24;-6.00;98.40
69261;DHT22;56378;52.404;20.816;2023-03-01T03:15:55;-6.00;98.60
69261;DHT22;56378;52.404;20.816;2023-03-01T03:18:22;-6.00;99.30
69261;DHT22;56378;52.404;20.816;2023-03-01T03:20:49;-6.00;99.60
69261;DHT22;56378;52.404;20.816;2023-03-01T03:23:21;-6.00;99.90
69261;DHT22;56378;52.404;20.816;2023-03-01T03:25:50;-6.00;99.90
69261;DHT22;56378;52.404;20.816;2023-03-01T03:28:16;-6.00;99.90
69261;DHT22;56378;52.404;20.816;2023-03-01T03:30:43;-6.00;99.90
69261;DHT22;56378;52.404;20.816;2023-03-01T03:33:10;-5.90;99.90
69261;DHT22;56378;52.404;20.816;2023-03-01T03:35:48;-5.90;99.90
69261;DHT22;56378;52.404;20.816;2023-03-01T03:38:16;-5.90;99.90
69261;DHT22;56378;52.404;20.816;2023-03-01T03:40:47;-5.90;99.90
69261;DHT22;56378;52.404;20.816;2023-03-01T03:43:15;-5.90;99.90
69261;DHT22;56378;52.404;20.816;2023-03-01T03:45:43;-5.90;99.90
69261;DHT22;56378;52.404;20.816;2023-03-01T03:48:09;-5.90;99.90
69261;DHT22;56378;52.404;20.816;2023-03-01T03:50:36;-5.90;99.90
69261;DHT22;56378;52.404;20.816;2023-03-01T03:53:06;-5.90;99.90
69261;DHT22;56378;52.404;20.816;2023-03-01T03:55:33;-5.90;99.90
69261;DHT22;56378;52.404;20.816;2023-03-01T03:58:00;-5.80;99.90
69261;DHT22;56378;52.404;20.816;2023-03-01T04:00:39;-5.80;99.90
69261;DHT22;56378;52.404;20.816;2023-03-01T04:03:05;-5.80;99.90
69261;DHT22;56378;52.404;20.816;2023-03-01T04:05:31;-5.80;99.90
69261;DHT22;56378;52.404;20.816;2023-03-01T04:07:58;-5.80;99.90
69261;DHT22;56378;52.404;20.816;2023-03-01T04:10:32;-5.80;99.90
69261;DHT22;56378;52.404;20.816;2023-03-01T04:13:00;-5.80;99.90
69261;DHT22;56378;52.404;20.816;2023-03-01T04:15:27;-5.80;99.90
69261;DHT22;56378;52.404;20.816;2023-03-01T04:17:54;-5.80;99.90
69261;DHT22;56378;52.404;20.816;2023-03-01T04:20:23;-5.70;99.90
69261;DHT22;56378;52.404;20.816;2023-03-01T04:25:23;-5.70;99.90
69261;DHT22;56378;52.404;20.816;2023-03-01T04:27:49;-5.70;99.90
69261;DHT22;56378;52.404;20.816;2023-03-01T04:30:14;-5.70;99.90
69261;DHT22;56378;52.404;20.816;2023-03-01T04:32:40;-5.70;99.90
69261;DHT22;56378;52.404;20.816;2023-03-01T04:35:06;-5.70;99.90
69261;DHT22;56378;52.404;20.816;2023-03-01T04:37:32;-5.70;99.90
69261;DHT22;56378;52.404;20.816;2023-03-01T04:39:58;-5.70;99.90
69261;DHT22;56378;52.404;20.816;2023-03-01T04:42:23;-5.60;99.90
69261;DHT22;56378;52.404;20.816;2023-03-01T04:44:49;-5.60;99.90
69261;DHT22;56378;52.404;20.816;2023-03-01T04:47:17;-5.60;99.90
69261;DHT22;56378;52.404;20.816;2023-03-01T04:49:43;-5.60;99.90
69261;DHT22;56378;52.404;20.816;2023-03-01T04:52:08;-5.60;99.90
69261;DHT22;56378;52.404;20.816;2023-03-01T04:54:35;-5.50;99.90
69261;DHT22;56378;52.404;20.816;2023-03-01T04:57:02;-5.50;99.90
69261;DHT22;56378;52.404;20.816;2023-03-01T04:59:28;-5.50;99.90
69261;DHT22;56378;52.404;20.816;2023-03-01T05:01:55;-5.50;99.90
69261;DHT22;56378;52.404;20.816;2023-03-01T05:04:24;-5.50;99.90
69261;DHT22;56378;52.404;20.816;2023-03-01T05:06:50;-5.50;99.90
69261;DHT22;56378;52.404;20.816;2023-03-01T05:09:16;-5.50;99.90
69261;DHT22;56378;52.404;20.816;2023-03-01T05:11:42;-5.50;99.90
69261;DHT22;56378;52.404;20.816;2023-03-01T05:14:09;-5.40;99.90
69261;DHT22;56378;52.404;20.816;2023-03-01T05:16:35;-5.40;99.90
69261;DHT22;56378;52.404;20.816;2023-03-01T05:19:03;-5.40;99.90
69261;DHT22;56378;52.404;20.816;2023-03-01T05:21:40;-5.40;99.90
69261;DHT22;56378;52.404;20.816;2023-03-01T05:24:26;-5.40;99.90
69261;DHT22;56378;52.404;20.816;2023-03-01T05:26:52;-5.30;99.90
69261;DHT22;56378;52.404;20.816;2023-03-01T05:29:19;-5.30;99.90
69261;DHT22;56378;52.404;20.816;2023-03-01T05:31:52;-5.30;99.90
69261;DHT22;56378;52.404;20.816;2023-03-01T05:34:22;-5.30;99.90
69261;DHT22;56378;52.404;20.816;2023-03-01T05:36:48;-5.30;99.90
69261;DHT22;56378;52.404;20.816;2023-03-01T05:39:22;-5.20;99.90
69261;DHT22;56378;52.404;20.816;2023-03-01T05:41:51;-5.20;99.90
69261;DHT22;56378;52.404;20.816;2023-03-01T05:44:17;-5.20;99.90
69261;DHT22;56378;52.404;20.816;2023-03-01T05:46:43;-5.20;99.90
69261;DHT22;56378;52.404;20.816;2023-03-01T05:49:10;-5.20;99.90
69261;DHT22;56378;52.404;20.816;2023-03-01T05:51:36;-5.10;99.90
69261;DHT22;56378;52.404;20.816;2023-03-01T05:54:02;-5.10;99.90
69261;DHT22;56378;52.404;20.816;2023-03-01T05:56:28;-5.00;99.90
69261;DHT22;56378;52.404;20.816;2023-03-01T05:58:54;-5.00;99.90
69261;DHT22;56378;52.404;20.816;2023-03-01T06:01:20;-4.90;99.90
69261;DHT22;56378;52.404;20.816;2023-03-01T06:03:45;-4.80;99.90
69261;DHT22;56378;52.404;20.816;2023-03-01T06:06:11;-4.70;99.90
69261;DHT22;56378;52.404;20.816;2023-03-01T06:08:37;-4.60;99.90
69261;DHT22;56378;52.404;20.816;2023-03-01T06:11:03;-4.50;99.90
69261;DHT22;56378;52.404;20.816;2023-03-01T06:13:28;-4.40;99.90
69261;DHT22;56378;52.404;20.816;2023-03-01T06:15:55;-4.20;99.90
69261;DHT22;56378;52.404;20.816;2023-03-01T06:18:21;-4.10;99.30
69261;DHT22;56378;52.404;20.816;2023-03-01T06:20:53;-3.90;98.90
69261;DHT22;56378;52.404;20.816;2023-03-01T06:23:19;-3.70;98.50
69261;DHT22;56378;52.404;20.816;2023-03-01T06:25:45;-3.40;97.60
69261;DHT22;56378;52.404;20.816;2023-03-01T06:28:11;-3.20;96.80
69261;DHT22;56378;52.404;20.816;2023-03-01T06:30:36;-2.90;94.90
69261;DHT22;56378;52.404;20.816;2023-03-01T06:33:02;-2.70;93.90
69261;DHT22;56378;52.404;20.816;2023-03-01T06:35:31;-2.30;92.20
69261;DHT22;56378;52.404;20.816;2023-03-01T06:37:58;-2.00;90.60
69261;DHT22;56378;52.404;20.816;2023-03-01T06:40:25;-1.60;89.60
69261;DHT22;56378;52.404;20.816;2023-03-01T06:42:51;-1.20;87.20
69261;DHT22;56378;52.404;20.816;2023-03-01T06:45:18;-0.90;85.40
69261;DHT22;56378;52.404;20.816;2023-03-01T06:47:44;-0.40;83.60
69261;DHT22;56378;52.404;20.816;2023-03-01T06:50:10;0.00;81.30
69261;DHT22;56378;52.404;20.816;2023-03-01T06:52:36;0.30;79.00
69261;DHT22;56378;52.404;20.816;2023-03-01T06:55:03;0.70;77.40
69261;DHT22;56378;52.404;20.816;2023-03-01T06:57:29;0.90;76.10
69261;DHT22;56378;52.404;20.816;2023-03-01T06:59:55;1.20;75.50
69261;DHT22;56378;52.404;20.816;2023-03-01T07:02:21;1.50;73.80
69261;DHT22;56378;52.404;20.816;2023-03-01T07:04:48;1.70;72.10
69261;DHT22;56378;52.404;20.816;2023-03-01T07:07:14;2.00;72.10
69261;DHT22;56378;52.404;20.816;2023-03-01T07:09:39;2.30;70.60
69261;DHT22;56378;52.404;20.816;2023-03-01T07:12:05;2.70;69.20
69261;DHT22;56378;52.404;20.816;2023-03-01T07:14:31;2.80;68.70
69261;DHT22;56378;52.404;20.816;2023-03-01T07:16:57;3.10;66.90
69261;DHT22;56378;52.404;20.816;2023-03-01T07:19:23;3.30;65.90
69261;DHT22;56378;52.404;20.816;2023-03-01T07:21:49;3.80;65.00
69261;DHT22;56378;52.404;20.816;2023-03-01T07:24:15;4.30;63.40
69261;DHT22;56378;52.404;20.816;2023-03-01T07:26:40;4.50;62.40
69261;DHT22;56378;52.404;20.816;2023-03-01T07:29:09;5.10;60.60
69261;DHT22;56378;52.404;20.816;2023-03-01T07:31:35;5.60;59.30
69261;DHT22;56378;52.404;20.816;2023-03-01T07:34:01;5.90;58.10
69261;DHT22;56378;52.404;20.816;2023-03-01T07:36:26;6.40;57.10
69261;DHT22;56378;52.404;20.816;2023-03-01T07:38:52;6.70;54.90
69261;DHT22;56378;52.404;20.816;2023-03-01T07:41:18;7.00;55.20
69261;DHT22;56378;52.404;20.816;2023-03-01T07:43:44;7.50;53.90
69261;DHT22;56378;52.404;20.816;2023-03-01T07:46:10;7.80;52.30
69261;DHT22;56378;52.404;20.816;2023-03-01T07:48:35;7.60;51.70
69261;DHT22;56378;52.404;20.816;2023-03-01T07:51:03;7.50;52.80
69261;DHT22;56378;52.404;20.816;2023-03-01T07:53:29;7.60;52.30
69261;DHT22;56378;52.404;20.816;2023-03-01T07:56:05;7.60;52.20
69261;DHT22;56378;52.404;20.816;2023-03-01T07:58:31;8.10;52.50
69261;DHT22;56378;52.404;20.816;2023-03-01T08:01:02;8.50;50.80
69261;DHT22;56378;52.404;20.816;2023-03-01T08:03:28;8.70;50.80
69261;DHT22;56378;52.404;20.816;2023-03-01T08:05:54;8.90;49.80
69261;DHT22;56378;52.404;20.816;2023-03-01T08:08:19;9.10;49.40
69261;DHT22;56378;52.404;20.816;2023-03-01T08:10:45;9.10;48.60
69261;DHT22;56378;52.404;20.816;2023-03-01T08:13:11;9.70;47.70
69261;DHT22;56378;52.404;20.816;2023-03-01T08:15:37;9.90;47.60
69261;DHT22;56378;52.404;20.816;2023-03-01T08:18:02;9.70;47.30
69261;DHT22;56378;52.404;20.816;2023-03-01T08:20:28;9.70;46.90
69261;DHT22;56378;52.404;20.816;2023-03-01T08:22:54;9.70;46.90
69261;DHT22;56378;52.404;20.816;2023-03-01T08:25:19;9.90;47.60
69261;DHT22;56378;52.404;20.816;2023-03-01T08:27:45;9.80;46.90
69261;DHT22;56378;52.404;20.816;2023-03-01T08:30:11;10.00;47.10
69261;DHT22;56378;52.404;20.816;2023-03-01T08:32:38;9.80;48.00
69261;DHT22;56378;52.404;20.816;2023-03-01T08:35:04;9.90;48.00
69261;DHT22;56378;52.404;20.816;2023-03-01T08:37:30;10.10;47.10
69261;DHT22;56378;52.404;20.816;2023-03-01T08:39:58;10.30;47.10
69261;DHT22;56378;52.404;20.816;2023-03-01T08:42:24;10.60;47.00
69261;DHT22;56378;52.404;20.816;2023-03-01T08:44:50;10.60;46.00
69261;DHT22;56378;52.404;20.816;2023-03-01T08:47:15;10.50;46.50
69261;DHT22;56378;52.404;20.816;2023-03-01T08:49:42;10.50;46.10
69261;DHT22;56378;52.404;20.816;2023-03-01T08:52:08;10.60;45.90
69261;DHT22;56378;52.404;20.816;2023-03-01T08:54:34;10.80;45.60
69261;DHT22;56378;52.404;20.816;2023-03-01T08:57:02;10.90;45.30
69261;DHT22;56378;52.404;20.816;2023-03-01T08:59:28;11.00;45.20
69261;DHT22;56378;52.404;20.816;2023-03-01T09:01:55;11.30;45.40
69261;DHT22;56378;52.404;20.816;2023-03-01T09:04:21;11.60;45.30
69261;DHT22;56378;52.404;20.816;2023-03-01T09:06:47;11.50;45.20
69261;DHT22;56378;52.404;20.816;2023-03-01T09:09:16;11.60;45.30
69261;DHT22;56378;52.404;20.816;2023-03-01T09:11:43;11.80;43.80
69261;DHT22;56378;52.404;20.816;2023-03-01T09:14:09;11.60;44.40
69261;DHT22;56378;52.404;20.816;2023-03-01T09:16:35;11.40;44.80
69261;DHT22;56378;52.404;20.816;2023-03-01T09:19:02;11.30;45.40
69261;DHT22;56378;52.404;20.816;2023-03-01T09:21:28;11.50;44.90
69261;DHT22;56378;52.404;20.816;2023-03-01T09:23:56;11.70;45.20
69261;DHT22;56378;52.404;20.816;2023-03-01T09:26:23;11.60;44.30
69261;DHT22;56378;52.404;20.816;2023-03-01T09:28:51;11.50;45.20
69261;DHT22;56378;52.404;20.816;2023-03-01T09:31:19;11.50;45.50
69261;DHT22;56378;52.404;20.816;2023-03-01T09:33:47;11.70;45.00
69261;DHT22;56378;52.404;20.816;2023-03-01T09:36:18;11.50;44.80
69261;DHT22;56378;52.404;20.816;2023-03-01T09:38:45;11.70;45.10
69261;DHT22;56378;52.404;20.816;2023-03-01T09:43:48;12.30;45.00
69261;DHT22;56378;52.404;20.816;2023-03-01T09:46:20;12.90;43.90
69261;DHT22;56378;52.404;20.816;2023-03-01T09:49:06;13.00;42.50
69261;DHT22;56378;52.404;20.816;2023-03-01T09:51:35;13.60;42.20
69261;DHT22;56378;52.404;20.816;2023-03-01T09:54:02;14.20;41.00
69261;DHT22;56378;52.404;20.816;2023-03-01T09:56:41;14.20;41.40
69261;DHT22;56378;52.404;20.816;2023-03-01T09:59:49;14.60;40.40
69261;DHT22;56378;52.404;20.816;2023-03-01T10:02:21;14.80;39.30
69261;DHT22;56378;52.404;20.816;2023-03-01T10:05:27;14.80;40.00
69261;DHT22;56378;52.404;20.816;2023-03-01T10:10:28;15.00;38.80
69261;DHT22;56378;52.404;20.816;2023-03-01T10:12:57;15.10;38.90
69261;DHT22;56378;52.404;20.816;2023-03-01T10:15:38;15.10;39.10
69261;DHT22;56378;52.404;20.816;2023-03-01T10:18:19;15.20;39.10
69261;DHT22;56378;52.404;20.816;2023-03-01T10:21:21;15.40;38.30
69261;DHT22;56378;52.404;20.816;2023-03-01T10:23:50;16.30;38.50
69261;DHT22;56378;52.404;20.816;2023-03-01T10:29:10;17.00;36.60
69261;DHT22;56378;52.404;20.816;2023-03-01T10:31:51;17.70;35.70
69261;DHT22;56378;52.404;20.816;2023-03-01T10:34:22;18.10;35.40
69261;DHT22;56378;52.404;20.816;2023-03-01T10:36:56;18.30;34.40
69261;DHT22;56378;52.404;20.816;2023-03-01T10:39:25;18.50;34.50
69261;DHT22;56378;52.404;20.816;2023-03-01T10:42:05;18.90;33.70
69261;DHT22;56378;52.404;20.816;2023-03-01T10:44:45;19.30;33.60
69261;DHT22;56378;52.404;20.816;2023-03-01T10:47:21;19.70;32.10
69261;DHT22;56378;52.404;20.816;2023-03-01T10:50:01;18.60;33.60
69261;DHT22;56378;52.404;20.816;2023-03-01T10:52:36;18.30;33.80
69261;DHT22;56378;52.404;20.816;2023-03-01T10:57:48;19.00;33.60
69261;DHT22;56378;52.404;20.816;2023-03-01T11:00:17;19.40;32.90
69261;DHT22;56378;52.404;20.816;2023-03-01T11:02:50;19.60;32.80
69261;DHT22;56378;52.404;20.816;2023-03-01T11:05:20;20.20;32.10
69261;DHT22;56378;52.404;20.816;2023-03-01T11:07:51;20.50;31.70
69261;DHT22;56378;52.404;20.816;2023-03-01T11:10:20;21.10;30.90
69261;DHT22;56378;52.404;20.816;2023-03-01T11:12:46;21.20;31.00
69261;DHT22;56378;52.404;20.816;2023-03-01T11:15:24;21.80;31.00
69261;DHT22;56378;52.404;20.816;2023-03-01T11:17:50;21.80;30.00
69261;DHT22;56378;52.404;20.816;2023-03-01T11:22:56;22.10;29.60
69261;DHT22;56378;52.404;20.816;2023-03-01T11:25:31;21.90;30.20
69261;DHT22;56378;52.404;20.816;2023-03-01T11:27:59;22.20;29.80
69261;DHT22;56378;52.404;20.816;2023-03-01T11:30:31;21.80;30.20
69261;DHT22;56378;52.404;20.816;2023-03-01T11:33:30;21.00;30.90
69261;DHT22;56378;52.404;20.816;2023-03-01T11:36:13;19.60;33.10
69261;DHT22;56378;52.404;20.816;2023-03-01T11:38:42;18.40;34.30
69261;DHT22;56378;52.404;20.816;2023-03-01T11:41:15;17.40;35.90
69261;DHT22;56378;52.404;20.816;2023-03-01T11:44:09;16.60;37.60
69261;DHT22;56378;52.404;20.816;2023-03-01T11:46:45;16.00;38.30
69261;DHT22;56378;52.404;20.816;2023-03-01T11:52:09;17.80;36.60
69261;DHT22;56378;52.404;20.816;2023-03-01T11:57:50;19.10;33.80
69261;DHT22;56378;52.404;20.816;2023-03-01T12:00:25;19.80;32.60
69261;DHT22;56378;52.404;20.816;2023-03-01T12:03:28;19.80;33.00
69261;DHT22;56378;52.404;20.816;2023-03-01T12:06:24;19.70;33.00
69261;DHT22;56378;52.404;20.816;2023-03-01T12:09:02;19.40;33.30
69261;DHT22;56378;52.404;20.816;2023-03-01T12:14:51;18.30;35.60
69261;DHT22;56378;52.404;20.816;2023-03-01T12:20:05;17.20;37.40
69261;DHT22;56378;52.404;20.816;2023-03-01T12:23:04;16.70;37.40
69261;DHT22;56378;52.404;20.816;2023-03-01T12:25:58;16.30;39.10
69261;DHT22;56378;52.404;20.816;2023-03-01T12:28:41;15.60;40.30
69261;DHT22;56378;52.404;20.816;2023-03-01T12:47:48;14.10;44.20
69261;DHT22;56378;52.404;20.816;2023-03-01T12:50:28;14.10;44.30
69261;DHT22;56378;52.404;20.816;2023-03-01T12:52:57;13.90;44.60
69261;DHT22;56378;52.404;20.816;2023-03-01T12:55:33;13.50;45.00
69261;DHT22;56378;52.404;20.816;2023-03-01T12:58:28;13.40;45.40
69261;DHT22;56378;52.404;20.816;2023-03-01T13:17:53;13.30;46.20
69261;DHT22;56378;52.404;20.816;2023-03-01T13:23:09;13.00;46.70
69261;DHT22;56378;52.404;20.816;2023-03-01T13:31:08;14.50;44.60
69261;DHT22;56378;52.404;20.816;2023-03-01T13:33:46;14.70;43.60
69261;DHT22;56378;52.404;20.816;2023-03-01T13:39:27;17.00;40.00
69261;DHT22;56378;52.404;20.816;2023-03-01T13:41:54;18.20;37.60
69261;DHT22;56378;52.404;20.816;2023-03-01T13:46:55;16.10;40.30
69261;DHT22;56378;52.404;20.816;2023-03-01T13:58:00;13.20;46.70
69261;DHT22;56378;52.404;20.816;2023-03-01T14:00:31;12.70;47.70
69261;DHT22;56378;52.404;20.816;2023-03-01T14:05:42;11.70;50.10
69261;DHT22;56378;52.404;20.816;2023-03-01T14:08:23;11.50;50.80
69261;DHT22;56378;52.404;20.816;2023-03-01T14:18:52;10.70;53.80
69261;DHT22;56378;52.404;20.816;2023-03-01T14:21:23;10.50;54.00
69261;DHT22;56378;52.404;20.816;2023-03-01T14:23:50;10.30;54.40
69261;DHT22;56378;52.404;20.816;2023-03-01T14:26:21;10.20;55.20
69261;DHT22;56378;52.404;20.816;2023-03-01T14:28:47;10.00;55.70
69261;DHT22;56378;52.404;20.816;2023-03-01T14:31:36;9.90;56.60
69261;DHT22;56378;52.404;20.816;2023-03-01T14:34:03;9.90;56.50
69261;DHT22;56378;52.404;20.816;2023-03-01T14:36:31;9.70;57.00
69261;DHT22;56378;52.404;20.816;2023-03-01T14:38:57;9.70;57.00
69261;DHT22;56378;52.404;20.816;2023-03-01T14:41:33;9.50;57.50
69261;DHT22;56378;52.404;20.816;2023-03-01T14:44:01;9.30;57.80
69261;DHT22;56378;52.404;20.816;2023-03-01T14:46:36;9.20;58.60
69261;DHT22;56378;52.404;20.816;2023-03-01T14:51:40;9.00;59.80
69261;DHT22;56378;52.404;20.816;2023-03-01T14:54:42;8.90;60.20
69261;DHT22;56378;52.404;20.816;2023-03-01T14:57:15;8.80;60.30
69261;DHT22;56378;52.404;20.816;2023-03-01T14:59:42;8.80;60.80
69261;DHT22;56378;52.404;20.816;2023-03-01T15:02:13;8.70;61.10
69261;DHT22;56378;52.404;20.816;2023-03-01T15:04:45;8.60;61.10
69261;DHT22;56378;52.404;20.816;2023-03-01T15:07:13;8.50;61.60
69261;DHT22;56378;52.404;20.816;2023-03-01T15:09:40;8.40;61.90
69261;DHT22;56378;52.404;20.816;2023-03-01T15:14:53;8.30;62.30
69261;DHT22;56378;52.404;20.816;2023-03-01T15:17:33;8.20;62.60
69261;DHT22;56378;52.404;20.816;2023-03-01T15:20:05;8.10;63.10
69261;DHT22;56378;52.404;20.816;2023-03-01T15:22:32;8.00;63.60
69261;DHT22;56378;52.404;20.816;2023-03-01T15:24:58;8.00;63.70
69261;DHT22;56378;52.404;20.816;2023-03-01T15:27:25;7.90;64.00
69261;DHT22;56378;52.404;20.816;2023-03-01T15:29:59;7.80;64.00
69261;DHT22;56378;52.404;20.816;2023-03-01T15:32:31;7.60;64.40
69261;DHT22;56378;52.404;20.816;2023-03-01T15:35:01;7.50;64.90
69261;DHT22;56378;52.404;20.816;2023-03-01T15:37:49;7.30;65.40
69261;DHT22;56378;52.404;20.816;2023-03-01T15:40:26;7.20;65.70
69261;DHT22;56378;52.404;20.816;2023-03-01T15:42:59;7.10;65.80
69261;DHT22;56378;52.404;20.816;2023-03-01T15:45:28;7.00;66.40
69261;DHT22;56378;52.404;20.816;2023-03-01T15:48:00;6.90;66.40
69261;DHT22;56378;52.404;20.816;2023-03-01T15:52:56;6.60;67.20
69261;DHT22;56378;52.404;20.816;2023-03-01T15:55:26;6.50;67.50
69261;DHT22;56378;52.404;20.816;2023-03-01T15:58:12;6.30;68.10
69261;DHT22;56378;52.404;20.816;2023-03-01T16:00:38;6.20;68.80
69261;DHT22;56378;52.404;20.816;2023-03-01T16:03:05;6.00;69.00
69261;DHT22;56378;52.404;20.816;2023-03-01T16:05:33;5.90;69.50
69261;DHT22;56378;52.404;20.816;2023-03-01T16:08:00;5.80;69.90
69261;DHT22;56378;52.404;20.816;2023-03-01T16:10:26;5.70;70.40
69261;DHT22;56378;52.404;20.816;2023-03-01T16:12:53;5.50;70.40
69261;DHT22;56378;52.404;20.816;2023-03-01T16:15:20;5.40;70.70
69261;DHT22;56378;52.404;20.816;2023-03-01T16:17:47;5.30;71.40
69261;DHT22;56378;52.404;20.816;2023-03-01T16:20:12;5.10;71.70
69261;DHT22;56378;52.404;20.816;2023-03-01T16:22:44;5.00;71.30
69261;DHT22;56378;52.404;20.816;2023-03-01T16:25:11;4.90;70.90
69261;DHT22;56378;52.404;20.816;2023-03-01T16:27:38;4.80;70.90
69261;DHT22;56378;52.404;20.816;2023-03-01T16:30:05;4.70;71.20
69261;DHT22;56378;52.404;20.816;2023-03-01T16:32:31;4.50;71.70
69261;DHT22;56378;52.404;20.816;2023-03-01T16:34:57;4.30;72.00
69261;DHT22;56378;52.404;20.816;2023-03-01T16:37:23;4.20;72.20
69261;DHT22;56378;52.404;20.816;2023-03-01T16:39:48;4.00;72.10
69261;DHT22;56378;52.404;20.816;2023-03-01T16:42:17;3.80;73.10
69261;DHT22;56378;52.404;20.816;2023-03-01T16:44:43;3.60;74.60
69261;DHT22;56378;52.404;20.816;2023-03-01T16:47:09;3.50;74.50
69261;DHT22;56378;52.404;20.816;2023-03-01T16:49:34;3.40;74.40
69261;DHT22;56378;52.404;20.816;2023-03-01T16:52:00;3.20;75.00
69261;DHT22;56378;52.404;20.816;2023-03-01T16:54:26;3.20;74.70
69261;DHT22;56378;52.404;20.816;2023-03-01T16:56:51;3.00;75.20
69261;DHT22;56378;52.404;20.816;2023-03-01T16:59:17;2.90;75.50
69261;DHT22;56378;52.404;20.816;2023-03-01T17:01:44;2.80;75.20
69261;DHT22;56378;52.404;20.816;2023-03-01T17:04:12;2.70;75.20
69261;DHT22;56378;52.404;20.816;2023-03-01T17:06:38;2.50;75.30
69261;DHT22;56378;52.404;20.816;2023-03-01T17:09:04;2.40;75.70
69261;DHT22;56378;52.404;20.816;2023-03-01T17:11:30;2.20;75.90
69261;DHT22;56378;52.404;20.816;2023-03-01T17:13:56;2.10;76.30
69261;DHT22;56378;52.404;20.816;2023-03-01T17:16:22;2.00;76.90
69261;DHT22;56378;52.404;20.816;2023-03-01T17:18:48;1.90;77.40
69261;DHT22;56378;52.404;20.816;2023-03-01T17:21:15;1.70;78.30
69261;DHT22;56378;52.404;20.816;2023-03-01T17:23:43;1.60;79.30
69261;DHT22;56378;52.404;20.816;2023-03-01T17:26:09;1.40;80.00
69261;DHT22;56378;52.404;20.816;2023-03-01T17:28:36;1.30;80.90
69261;DHT22;56378;52.404;20.816;2023-03-01T17:31:04;1.20;82.20